This is the latest recevied weather packets stored in our database for station/object N2PUI. If no packets are shown the sender has not sent any weather packets the latest 1 day(s).
| Time | Temp. | Humidity | Pressure | Rain* | Wind** | Luminosity | Snow |
|---|---|---|---|---|---|---|---|
| 1777996735 | 24.44° C | 45% | 1006.8 hPa | 0 mm | 1.79 m/s, 294° | 350 W/m² | - |
| 1777996431 | 24.44° C | 47% | 1006.8 hPa | 0 mm | 1.79 m/s, 205° | 391 W/m² | - |
| 1777996128 | 24.44° C | 45% | 1006.7 hPa | 0 mm | 1.34 m/s, 194° | 327 W/m² | - |
| 1777995824 | 23.89° C | 46% | 1007 hPa | 0 mm | 0.89 m/s, 146° | 809 W/m² | - |
| 1777995521 | 24.44° C | 46% | 1006.9 hPa | 0 mm | 4.47 m/s, 204° | 896 W/m² | - |
| 1777995218 | 25° C | 45% | 1006.8 hPa | 0 mm | 3.58 m/s, 226° | 806 W/m² | - |
| 1777994914 | 23.89° C | 46% | 1006.8 hPa | 0 mm | 0.45 m/s, 164° | 670 W/m² | - |
| 1777994611 | 24.44° C | 45% | 1006.7 hPa | 0 mm | 2.24 m/s, 171° | 690 W/m² | - |
| 1777994306 | 23.33° C | 49% | 1007 hPa | 0 mm | 1.34 m/s, 179° | 718 W/m² | - |
| 1777994003 | 23.33° C | 47% | 1006.7 hPa | 0 mm | 4.92 m/s, 224° | 626 W/m² | - |
| 1777993700 | 23.89° C | 45% | 1006.3 hPa | 0 mm | 5.81 m/s, 141° | 690 W/m² | - |
| 1777993397 | 23.89° C | 47% | 1006.4 hPa | 0 mm | 1.79 m/s, 191° | 728 W/m² | - |
| 1777993091 | 23.33° C | 47% | 1006.4 hPa | 0 mm | 0.89 m/s, 215° | 743 W/m² | - |
| 1777992790 | 23.89° C | 47% | 1006.6 hPa | 0 mm | 5.36 m/s, 320° | 767 W/m² | - |
| 1777992487 | 22.78° C | 50% | 1006.9 hPa | 0 mm | 1.79 m/s, 206° | 746 W/m² | - |
| 1777992186 | 22.78° C | 50% | 1006.7 hPa | 0 mm | 1.34 m/s, 149° | 760 W/m² | - |
| 1777991882 | 22.78° C | 49% | 1006.9 hPa | 0 mm | 1.79 m/s, 209° | 711 W/m² | - |
| 1777991580 | 22.22° C | 51% | 1006.7 hPa | 0 mm | 0.89 m/s, 217° | 731 W/m² | - |
| 1777991276 | 21.67° C | 51% | 1006.8 hPa | 0 mm | 3.13 m/s, 151° | 710 W/m² | - |
| 1777990974 | 22.22° C | 52% | 1007.1 hPa | 0 mm | 1.79 m/s, 154° | 641 W/m² | - |
| 1777990671 | 21.67° C | 54% | 1007 hPa | 0 mm | 1.79 m/s, 141° | 644 W/m² | - |
| 1777990369 | 21.11° C | 53% | 1007 hPa | 0 mm | 2.24 m/s, 171° | 592 W/m² | - |
| 1777990064 | 21.11° C | 53% | 1007 hPa | 0 mm | 6.26 m/s, 199° | 577 W/m² | - |
| 1777989761 | 21.67° C | 54% | 1007.3 hPa | 0 mm | 2.24 m/s, 184° | 587 W/m² | - |
| 1777989458 | 20.56° C | 54% | 1007.1 hPa | 0 mm | 2.24 m/s, 199° | 577 W/m² | - |
* Rain latest hour (hover to see other rain measurements)
** Current wind speed in m/s (hover to see current wind gust speed)